Time;durP1;ratioP1;P1;durP2;ratioP2;P2;SDS_P1;SDS_P2;PMS_P1;PMS_P2;Temp;Humidity;BMP_temperature;BMP_pressure;BME280_temperature;BME280_humidity;BME280_pressure;Samples;Min_cycle;Max_cycle;Signal;HPM_P1;HPM_P2
2022/12/15 00:39:57;;;;;;;35.05;15.27;;;;;;;;;;6011586;23;20059;-83
2022/12/15 00:42:22;;;;;;;38.75;17.00;;;;;;;;;;6010531;23;20089;-83
2022/12/15 00:44:48;;;;;;;39.90;18.08;;;;;;;;;;5982866;23;20460;-83
2022/12/15 00:47:13;;;;;;;37.30;15.80;;;;;;;;;;5982263;23;20015;-83
2022/12/15 01:22:36;;;;;;;39.55;18.90;;;;;;;;;;6010017;23;20070;-83
2022/12/15 01:25:05;;;;;;;45.90;19.60;;;;;;;;;;5984175;23;20015;-82
2022/12/15 01:27:34;;;;;;;41.35;18.40;;;;;;;;;;5983420;23;20019;-83
2022/12/15 01:30:00;;;;;;;34.53;16.55;;;;;;;;;;6006071;23;20007;-83
2022/12/15 01:32:26;;;;;;;32.70;16.48;;;;;;;;;;5983496;23;20012;-83
2022/12/15 01:34:52;;;;;;;38.83;16.42;;;;;;;;;;6007863;23;20468;-82
2022/12/15 01:37:17;;;;;;;39.78;17.42;;;;;;;;;;6007129;23;20019;-83
2022/12/15 01:42:27;;;;;;;36.35;16.77;;;;;;;;;;6010813;23;20030;-83
2022/12/15 01:45:27;;;;;;;37.38;17.33;;;;;;;;;;5983926;23;20015;-83
2022/12/15 01:48:02;;;;;;;37.25;16.75;;;;;;;;;;6031029;23;20015;-83
2022/12/15 01:50:28;;;;;;;48.30;16.30;;;;;;;;;;6007235;23;20479;-83
2022/12/15 01:52:54;;;;;;;34.80;16.97;;;;;;;;;;5984864;23;20031;-82
2022/12/15 01:55:21;;;;;;;35.58;16.30;;;;;;;;;;5983455;23;20321;-82
2022/12/15 01:57:47;;;;;;;36.67;16.40;;;;;;;;;;5985321;23;20369;-83
2022/12/15 02:00:13;;;;;;;40.33;16.42;;;;;;;;;;5967124;23;20079;-82
2022/12/15 02:02:38;;;;;;;34.83;16.60;;;;;;;;;;5958267;23;20423;-82
2022/12/15 02:05:05;;;;;;;32.15;16.15;;;;;;;;;;5958161;23;20137;-83
2022/12/15 02:07:30;;;;;;;39.70;18.02;;;;;;;;;;5979751;23;20019;-83
2022/12/15 02:09:59;;;;;;;39.28;17.42;;;;;;;;;;5978271;23;20094;-83
2022/12/15 02:13:06;;;;;;;42.05;16.50;;;;;;;;;;5954410;23;20385;-83
2022/12/15 02:15:45;;;;;;;38.10;17.27;;;;;;;;;;5945835;23;20020;-83
2022/12/15 02:18:13;;;;;;;38.25;15.70;;;;;;;;;;5978445;23;20019;-83
2022/12/15 02:20:54;;;;;;;36.10;15.32;;;;;;;;;;5977418;23;20458;-84
2022/12/15 02:23:29;;;;;;;31.60;15.40;;;;;;;;;;5954595;23;20020;-82
2022/12/15 02:26:33;;;;;;;39.35;16.38;;;;;;;;;;6001752;23;20023;-82
2022/12/15 02:29:12;;;;;;;36.05;15.32;;;;;;;;;;5973149;23;20019;-83
2022/12/15 02:31:49;;;;;;;36.03;16.48;;;;;;;;;;5976746;23;20031;-82
2022/12/15 02:34:30;;;;;;;34.30;15.25;;;;;;;;;;5956122;23;20016;-81
2022/12/15 02:37:12;;;;;;;29.27;14.63;;;;;;;;;;5976805;23;20028;-84
2022/12/15 02:39:37;;;;;;;35.15;14.50;;;;;;;;;;5954395;23;20062;-81
2022/12/15 02:42:03;;;;;;;30.17;13.05;;;;;;;;;;5954454;23;20020;-82
2022/12/15 02:44:35;;;;;;;44.38;16.33;;;;;;;;;;5979828;23;20096;-81
2022/12/15 02:47:45;;;;;;;32.35;15.55;;;;;;;;;;5955681;23;20027;-84
2022/12/15 02:50:23;;;;;;;39.10;14.60;;;;;;;;;;5972872;23;20071;-83
2022/12/15 02:53:26;;;;;;;38.28;14.77;;;;;;;;;;5978253;23;20012;-83
2022/12/15 02:55:57;;;;;;;31.90;14.52;;;;;;;;;;6000166;23;20020;-83
2022/12/15 02:58:32;;;;;;;35.25;16.13;;;;;;;;;;6004541;23;20578;-82
2022/12/15 03:01:05;;;;;;;30.70;14.02;;;;;;;;;;5982181;23;20364;-82
2022/12/15 03:03:31;;;;;;;34.42;14.07;;;;;;;;;;5984638;23;20087;-82
2022/12/15 03:05:57;;;;;;;34.13;15.40;;;;;;;;;;5982555;23;20067;-82
2022/12/15 03:08:22;;;;;;;36.55;15.23;;;;;;;;;;5983047;23;20019;-81
2022/12/15 03:10:51;;;;;;;35.72;13.95;;;;;;;;;;6005639;23;20549;-82
2022/12/15 03:13:17;;;;;;;33.60;14.75;;;;;;;;;;5981728;23;20534;-83
2022/12/15 03:15:42;;;;;;;39.65;16.20;;;;;;;;;;6030241;23;20031;-83
2022/12/15 03:18:08;;;;;;;33.47;14.65;;;;;;;;;;6008021;23;20457;-83
2022/12/15 03:20:34;;;;;;;33.10;15.15;;;;;;;;;;5981437;23;20364;-82
2022/12/15 03:23:00;;;;;;;29.60;13.88;;;;;;;;;;6006015;23;20011;-84
2022/12/15 03:25:26;;;;;;;35.03;14.98;;;;;;;;;;5980846;23;20015;-83
2022/12/15 03:27:51;;;;;;;28.00;13.45;;;;;;;;;;6005496;23;20356;-81
2022/12/15 03:30:17;;;;;;;27.52;13.57;;;;;;;;;;6004005;23;20072;-81
2022/12/15 03:32:42;;;;;;;32.78;14.10;;;;;;;;;;5981269;23;20026;-83
2022/12/15 03:35:08;;;;;;;31.73;13.88;;;;;;;;;;5982003;23;20401;-81
2022/12/15 03:37:33;;;;;;;29.73;13.93;;;;;;;;;;6029178;23;20015;-82
2022/12/15 03:39:59;;;;;;;31.63;13.20;;;;;;;;;;6005225;23;20365;-81
2022/12/15 03:45:28;;;;;;;31.00;12.77;;;;;;;;;;6008343;23;20093;-82
2022/12/15 03:47:55;;;;;;;27.48;12.80;;;;;;;;;;6032086;23;20101;-83
2022/12/15 03:50:23;;;;;;;34.63;14.23;;;;;;;;;;6031148;23;20019;-83
2022/12/15 03:53:07;;;;;;;32.03;13.57;;;;;;;;;;6032744;23;20323;-82
2022/12/15 03:55:34;;;;;;;32.45;12.10;;;;;;;;;;6007415;23;20154;-82
2022/12/15 03:57:59;;;;;;;21.43;9.47;;;;;;;;;;6032872;23;20281;-83
2022/12/15 04:00:25;;;;;;;29.60;12.32;;;;;;;;;;6057456;23;20027;-82
2022/12/15 04:02:53;;;;;;;32.72;13.27;;;;;;;;;;6038014;23;20045;-82
2022/12/15 04:05:24;;;;;;;29.17;13.38;;;;;;;;;;6060641;23;20024;-82
2022/12/15 04:07:50;;;;;;;28.55;12.68;;;;;;;;;;6037792;23;20090;-82
2022/12/15 04:10:15;;;;;;;28.65;13.02;;;;;;;;;;6037943;23;20045;-82
2022/12/15 04:12:41;;;;;;;35.88;13.10;;;;;;;;;;6064003;23;20097;-83
2022/12/15 04:15:07;;;;;;;30.77;12.48;;;;;;;;;;6040995;23;20022;-83
2022/12/15 04:17:33;;;;;;;26.60;12.00;;;;;;;;;;6065105;23;20322;-84
2022/12/15 04:20:07;;;;;;;32.42;12.02;;;;;;;;;;6040614;23;20043;-84
2022/12/15 04:22:33;;;;;;;34.85;11.98;;;;;;;;;;6040971;23;20028;-83
2022/12/15 05:33:21;;;;;;;32.88;12.10;;;;;;;;;;6010062;23;20099;-86
2022/12/15 05:35:47;;;;;;;36.83;13.63;;;;;;;;;;6004600;23;20411;-86
2022/12/15 05:38:12;;;;;;;27.42;12.10;;;;;;;;;;6005906;23;20043;-86
2022/12/15 05:40:37;;;;;;;27.05;12.02;;;;;;;;;;5981865;23;20071;-86
2022/12/15 05:43:03;;;;;;;26.63;11.95;;;;;;;;;;6006501;23;20022;-88
2022/12/15 05:45:30;;;;;;;36.10;12.93;;;;;;;;;;6005362;23;20012;-86
2022/12/15 05:47:56;;;;;;;28.00;11.07;;;;;;;;;;6005086;23;20059;-86
2022/12/15 05:50:22;;;;;;;32.55;12.15;;;;;;;;;;6004039;23;20512;-87
2022/12/15 05:52:48;;;;;;;33.50;11.25;;;;;;;;;;6005552;23;20460;-87
2022/12/15 05:55:17;;;;;;;32.07;12.73;;;;;;;;;;5982124;23;20019;-86
2022/12/15 05:57:44;;;;;;;28.85;11.18;;;;;;;;;;5981843;23;20026;-87
2022/12/15 06:00:09;;;;;;;26.27;11.33;;;;;;;;;;6004555;23;20326;-87
2022/12/15 06:02:35;;;;;;;30.90;12.32;;;;;;;;;;5981989;23;20023;-84
2022/12/15 06:05:00;;;;;;;31.10;11.65;;;;;;;;;;5981020;23;20242;-87
2022/12/15 06:07:26;;;;;;;28.75;11.70;;;;;;;;;;6004098;23;20452;-87
2022/12/15 06:09:52;;;;;;;28.50;10.82;;;;;;;;;;6005244;23;20026;-87
2022/12/15 06:12:17;;;;;;;29.67;11.65;;;;;;;;;;5979912;23;20050;-85
2022/12/15 06:14:43;;;;;;;24.48;10.82;;;;;;;;;;5982278;23;20023;-86
2022/12/15 06:17:08;;;;;;;26.75;11.10;;;;;;;;;;5981501;23;20019;-85
2022/12/15 06:19:34;;;;;;;21.30;9.63;;;;;;;;;;5990971;23;20468;-86
2022/12/15 06:21:59;;;;;;;28.52;11.80;;;;;;;;;;5981044;23;20015;-85
2022/12/15 06:24:25;;;;;;;25.85;11.13;;;;;;;;;;5980944;23;20019;-84
2022/12/15 06:26:50;;;;;;;22.35;11.25;;;;;;;;;;6004262;23;20082;-84
2022/12/15 06:29:15;;;;;;;27.83;11.50;;;;;;;;;;6003600;23;20027;-84
2022/12/15 06:31:41;;;;;;;31.95;11.85;;;;;;;;;;5979584;23;20019;-86
2022/12/15 06:34:10;;;;;;;29.30;12.45;;;;;;;;;;6006133;23;20384;-85
2022/12/15 06:36:35;;;;;;;27.83;10.90;;;;;;;;;;6004628;23;20016;-84
2022/12/15 06:39:03;;;;;;;26.63;10.15;;;;;;;;;;6005396;23;20027;-87
2022/12/15 06:41:29;;;;;;;25.02;11.35;;;;;;;;;;5980798;23;20083;-85
2022/12/15 06:43:54;;;;;;;30.23;12.27;;;;;;;;;;6005314;23;20027;-85
2022/12/15 06:46:20;;;;;;;33.70;12.55;;;;;;;;;;6027314;23;20449;-85
2022/12/15 06:48:46;;;;;;;28.67;12.57;;;;;;;;;;5980131;23;20046;-84
2022/12/15 06:51:12;;;;;;;29.40;11.57;;;;;;;;;;6004505;23;20062;-85
2022/12/15 06:53:39;;;;;;;23.48;11.98;;;;;;;;;;5980895;23;20507;-83
2022/12/15 06:56:07;;;;;;;27.90;10.70;;;;;;;;;;5981231;23;20015;-84
2022/12/15 06:58:33;;;;;;;25.77;11.52;;;;;;;;;;5981310;23;20023;-86
2022/12/15 07:01:04;;;;;;;26.20;11.32;;;;;;;;;;5980590;23;20493;-86
2022/12/15 07:03:29;;;;;;;30.65;11.15;;;;;;;;;;6003949;23;20081;-86
2022/12/15 07:06:02;;;;;;;24.98;10.93;;;;;;;;;;5979394;23;20023;-84
2022/12/15 07:08:28;;;;;;;20.80;10.73;;;;;;;;;;6003875;23;20088;-85
2022/12/15 07:10:53;;;;;;;23.40;10.20;;;;;;;;;;5989932;23;20027;-85
2022/12/15 07:13:19;;;;;;;24.20;10.93;;;;;;;;;;5966673;23;20023;-86
2022/12/15 07:15:50;;;;;;;21.85;11.00;;;;;;;;;;5978495;23;20015;-86
2022/12/15 07:18:16;;;;;;;19.80;10.00;;;;;;;;;;5989614;23;20023;-87
2022/12/15 07:20:44;;;;;;;23.08;10.50;;;;;;;;;;5986966;23;20414;-88
2022/12/15 07:23:10;;;;;;;27.75;10.57;;;;;;;;;;5979402;23;20106;-87
2022/12/15 07:25:36;;;;;;;23.98;9.63;;;;;;;;;;5979702;23;20008;-85
2022/12/15 07:28:05;;;;;;;24.25;10.65;;;;;;;;;;6003047;23;20027;-85
2022/12/15 07:30:31;;;;;;;21.60;10.35;;;;;;;;;;5978806;23;20456;-85
2022/12/15 07:32:57;;;;;;;22.83;10.30;;;;;;;;;;5979990;23;20479;-84
2022/12/15 07:35:43;;;;;;;23.63;10.93;;;;;;;;;;5978482;23;20345;-85
2022/12/15 07:38:08;;;;;;;24.45;10.85;;;;;;;;;;5969449;23;20016;-85
2022/12/15 07:40:34;;;;;;;24.65;10.45;;;;;;;;;;5946055;24;20024;-83
2022/12/15 07:43:00;;;;;;;29.10;10.43;;;;;;;;;;5945412;23;20099;-85
2022/12/15 07:45:25;;;;;;;30.30;11.80;;;;;;;;;;5945429;23;20099;-84
2022/12/15 07:47:52;;;;;;;23.60;10.25;;;;;;;;;;5946715;23;20212;-84
2022/12/15 07:50:17;;;;;;;20.27;10.32;;;;;;;;;;5968072;23;20081;-84
2022/12/15 07:52:44;;;;;;;23.80;10.55;;;;;;;;;;5922995;23;20409;-84
2022/12/15 07:55:30;;;;;;;27.25;10.55;;;;;;;;;;5923208;23;20468;-84
2022/12/15 07:57:55;;;;;;;28.75;11.57;;;;;;;;;;5915350;24;20032;-84
2022/12/15 08:00:20;;;;;;;25.42;11.00;;;;;;;;;;5914183;24;20609;-84
2022/12/15 08:02:46;;;;;;;31.95;11.85;;;;;;;;;;5892653;24;20051;-84
2022/12/15 08:05:11;;;;;;;20.30;10.60;;;;;;;;;;5891797;24;20103;-84
2022/12/15 08:07:36;;;;;;;21.25;10.18;;;;;;;;;;5891531;24;20021;-84
2022/12/15 08:10:02;;;;;;;27.65;11.65;;;;;;;;;;5914113;24;20025;-84
2022/12/15 08:12:28;;;;;;;22.52;9.57;;;;;;;;;;5892017;24;21738;-84
2022/12/15 08:14:53;;;;;;;28.80;11.80;;;;;;;;;;5912938;24;20028;-84
2022/12/15 08:17:19;;;;;;;31.17;12.15;;;;;;;;;;5946654;24;20024;-84
2022/12/15 08:19:45;;;;;;;29.40;11.07;;;;;;;;;;5947736;24;20445;-84
2022/12/15 08:22:14;;;;;;;28.17;11.98;;;;;;;;;;5947336;24;20083;-86
2022/12/15 08:24:40;;;;;;;27.33;12.15;;;;;;;;;;5947775;24;20065;-84
2022/12/15 08:27:05;;;;;;;27.90;12.00;;;;;;;;;;5924513;24;20024;-85
2022/12/15 08:29:30;;;;;;;34.45;13.63;;;;;;;;;;5947889;24;20024;-84
2022/12/15 08:31:56;;;;;;;22.98;10.82;;;;;;;;;;5946695;24;20051;-84
2022/12/15 08:34:21;;;;;;;25.40;12.00;;;;;;;;;;5963237;23;20781;-85
2022/12/15 08:36:47;;;;;;;36.58;13.05;;;;;;;;;;5981971;23;20059;-84
2022/12/15 08:39:12;;;;;;;28.48;12.07;;;;;;;;;;5981617;23;20098;-85
2022/12/15 08:41:37;;;;;;;29.08;12.23;;;;;;;;;;6004703;23;20015;-85
2022/12/15 08:44:06;;;;;;;28.55;11.40;;;;;;;;;;5983130;23;20020;-86
2022/12/15 08:46:33;;;;;;;30.17;12.40;;;;;;;;;;6005163;23;20686;-85
2022/12/15 08:48:59;;;;;;;33.38;12.20;;;;;;;;;;5982377;23;20087;-85
2022/12/15 08:51:26;;;;;;;29.27;12.85;;;;;;;;;;5969320;23;20049;-86
2022/12/15 08:53:53;;;;;;;29.48;11.60;;;;;;;;;;6006239;23;20377;-86
2022/12/15 08:56:21;;;;;;;25.98;11.02;;;;;;;;;;5979949;23;20151;-86
2022/12/15 08:58:46;;;;;;;;;;;;;;;;;;6006086;23;20027;-85
2022/12/15 09:01:15;;;;;;;23.77;10.55;;;;;;;;;;6002915;23;19918;-86
2022/12/15 09:03:41;;;;;;;34.13;12.32;;;;;;;;;;6005806;23;20479;-85
2022/12/15 09:06:11;;;;;;;30.77;12.32;;;;;;;;;;6004968;23;20015;-86
2022/12/15 09:08:56;;;;;;;28.65;12.50;;;;;;;;;;5983008;23;20508;-86
2022/12/15 09:11:26;;;;;;;34.45;14.27;;;;;;;;;;5945700;24;20020;-86
2022/12/15 09:13:54;;;;;;;27.88;12.88;;;;;;;;;;5948149;24;20048;-86
2022/12/15 09:16:20;;;;;;;30.92;12.30;;;;;;;;;;5947231;24;20020;-86
2022/12/15 09:18:51;;;;;;;33.53;13.07;;;;;;;;;;5947147;24;20020;-87
2022/12/15 09:21:17;;;;;;;31.80;13.10;;;;;;;;;;5924486;24;20031;-86
2022/12/15 09:23:46;;;;;;;30.27;12.68;;;;;;;;;;5948291;24;20104;-86
2022/12/15 09:26:13;;;;;;;31.58;12.98;;;;;;;;;;5924595;24;20044;-87
2022/12/15 09:28:39;;;;;;;;;;;;;;;;;;5925736;24;20020;-87
2022/12/15 09:31:13;;;;;;;31.23;13.32;;;;;;;;;;5925228;24;19965;-86
2022/12/15 09:33:40;;;;;;;27.23;11.75;;;;;;;;;;5925398;24;20028;-86
2022/12/15 09:36:11;;;;;;;26.80;11.68;;;;;;;;;;5947672;24;20062;-86
2022/12/15 09:38:38;;;;;;;30.90;12.95;;;;;;;;;;5948563;24;20131;-86
2022/12/15 09:41:08;;;;;;;33.20;13.77;;;;;;;;;;5924989;24;20104;-87
2022/12/15 09:43:34;;;;;;;43.13;14.40;;;;;;;;;;5925547;24;20027;-88
2022/12/15 09:46:26;;;;;;;36.22;14.77;;;;;;;;;;5946938;24;20020;-89
2022/12/15 09:48:53;;;;;;;33.53;14.10;;;;;;;;;;6010426;23;20349;-87
2022/12/15 09:51:29;;;;;;;34.70;13.68;;;;;;;;;;5980005;23;20015;-88
2022/12/15 09:53:57;;;;;;;30.48;13.00;;;;;;;;;;5982117;23;20039;-86
2022/12/15 09:56:32;;;;;;;36.40;15.02;;;;;;;;;;5966002;23;20019;-87
2022/12/15 09:59:38;;;;;;;38.30;15.18;;;;;;;;;;5968067;23;20313;-86
2022/12/15 10:02:46;;;;;;;33.40;13.93;;;;;;;;;;5879037;24;20025;-87
2022/12/15 10:05:27;;;;;;;29.10;13.05;;;;;;;;;;5943674;23;20015;-86
2022/12/15 10:07:53;;;;;;;28.05;12.77;;;;;;;;;;5993341;23;20097;-87
2022/12/15 10:10:26;;;;;;;31.65;13.50;;;;;;;;;;5979981;23;20015;-87
2022/12/15 10:12:56;;;;;;;30.33;13.77;;;;;;;;;;6005812;23;20015;-86
2022/12/15 10:15:24;;;;;;;31.58;13.18;;;;;;;;;;5981107;23;20100;-89
2022/12/15 10:18:01;;;;;;;31.25;13.60;;;;;;;;;;6004985;23;20060;-87
2022/12/15 10:20:30;;;;;;;27.65;13.43;;;;;;;;;;5981242;23;20011;-87
2022/12/15 10:23:04;;;;;;;31.50;13.23;;;;;;;;;;6006434;23;20025;-88
2022/12/15 10:25:30;;;;;;;30.55;12.85;;;;;;;;;;6004591;23;20027;-87
2022/12/15 10:28:20;;;;;;;34.00;13.82;;;;;;;;;;6004813;23;20034;-87
2022/12/15 10:30:57;;;;;;;31.42;14.40;;;;;;;;;;6027832;23;20023;-87
2022/12/15 10:33:25;;;;;;;29.35;12.85;;;;;;;;;;6005639;23;20353;-87
2022/12/15 10:35:53;;;;;;;;;;;;;;;;;;6004284;23;20063;-88
2022/12/15 10:38:24;;;;;;;31.27;12.52;;;;;;;;;;6005627;23;19916;-85
2022/12/15 10:40:53;;;;;;;28.58;11.40;;;;;;;;;;6004009;23;20023;-85
2022/12/15 10:43:34;;;;;;;27.42;12.40;;;;;;;;;;5981927;23;20021;-87
2022/12/15 10:46:24;;;;;;;29.50;13.10;;;;;;;;;;6003218;23;20059;-88
2022/12/15 10:49:22;;;;;;;29.40;13.52;;;;;;;;;;6004926;23;20015;-87
2022/12/15 10:51:52;;;;;;;27.52;12.68;;;;;;;;;;5966100;23;20321;-87
2022/12/15 10:54:17;;;;;;;33.50;14.07;;;;;;;;;;6029708;23;20019;-87
2022/12/15 10:56:57;;;;;;;31.90;13.70;;;;;;;;;;6003097;23;20042;-86
2022/12/15 10:59:30;;;;;;;29.77;13.43;;;;;;;;;;6004491;23;20475;-87
2022/12/15 11:02:18;;;;;;;28.73;13.68;;;;;;;;;;6004520;23;20027;-86
2022/12/15 11:04:54;;;;;;;26.88;12.85;;;;;;;;;;6004829;23;20098;-87
2022/12/15 11:07:19;;;;;;;32.55;13.82;;;;;;;;;;5989894;23;20309;-87
2022/12/15 11:09:45;;;;;;;30.40;12.25;;;;;;;;;;5980234;23;20030;-85
2022/12/15 11:15:23;;;;;;;27.67;12.43;;;;;;;;;;6028465;23;20083;-87
2022/12/15 11:18:11;;;;;;;33.55;13.70;;;;;;;;;;6004361;23;20015;-88
2022/12/15 11:20:41;;;;;;;27.23;11.65;;;;;;;;;;6004289;23;20439;-88
2022/12/15 11:23:15;;;;;;;30.52;13.65;;;;;;;;;;5982514;23;20019;-87
2022/12/15 11:25:58;;;;;;;27.98;12.23;;;;;;;;;;6002961;23;20043;-88
2022/12/15 11:28:30;;;;;;;25.77;11.85;;;;;;;;;;5981070;23;20019;-86
2022/12/15 11:31:01;;;;;;;31.17;13.20;;;;;;;;;;6002515;23;20026;-88
2022/12/15 11:33:26;;;;;;;27.15;13.05;;;;;;;;;;6004060;23;20026;-87
2022/12/15 11:36:08;;;;;;;30.90;14.10;;;;;;;;;;6004742;23;20372;-86
2022/12/15 11:38:56;;;;;;;31.25;13.18;;;;;;;;;;6003223;23;20038;-83
2022/12/15 11:41:39;;;;;;;26.88;12.75;;;;;;;;;;6003229;23;20019;-83
2022/12/15 11:44:14;;;;;;;24.08;12.40;;;;;;;;;;6029086;23;20395;-84
2022/12/15 11:46:53;;;;;;;28.58;14.13;;;;;;;;;;6015187;23;20452;-83
2022/12/15 11:49:33;;;;;;;29.23;13.10;;;;;;;;;;6003857;23;20030;-84
2022/12/15 11:52:17;;;;;;;24.77;12.05;;;;;;;;;;6001859;23;20081;-87
2022/12/15 11:54:50;;;;;;;24.60;12.13;;;;;;;;;;6027219;23;20023;-86
2022/12/15 11:57:15;;;;;;;25.85;12.07;;;;;;;;;;6003476;23;20941;-86
2022/12/15 11:59:49;;;;;;;28.42;13.63;;;;;;;;;;6003683;23;20025;-87
2022/12/15 12:02:23;;;;;;;32.03;13.80;;;;;;;;;;6002997;23;20474;-83
2022/12/15 12:05:06;;;;;;;32.63;13.30;;;;;;;;;;6018769;23;20027;-88
2022/12/15 12:07:47;;;;;;;27.35;12.88;;;;;;;;;;5990927;23;20016;-89
2022/12/15 12:10:28;;;;;;;28.80;13.10;;;;;;;;;;5990625;23;20020;-89
2022/12/15 12:12:56;;;;;;;24.52;12.85;;;;;;;;;;6003963;23;20027;-89
2022/12/15 12:15:51;;;;;;;27.13;12.35;;;;;;;;;;6011683;23;20016;-88
2022/12/15 12:18:24;;;;;;;25.10;12.32;;;;;;;;;;6003092;23;20022;-89
2022/12/15 12:21:01;;;;;;;23.48;10.80;;;;;;;;;;6026195;23;20050;-90
2022/12/15 12:23:34;;;;;;;22.80;11.68;;;;;;;;;;6004293;23;20015;-88
2022/12/15 12:26:14;;;;;;;23.33;11.30;;;;;;;;;;6002500;23;20139;-89
2022/12/15 12:28:53;;;;;;;23.70;12.25;;;;;;;;;;6003464;23;20067;-88
2022/12/15 12:31:32;;;;;;;23.92;12.05;;;;;;;;;;6003115;23;20079;-88
2022/12/15 12:34:02;;;;;;;25.73;12.38;;;;;;;;;;6028796;23;20368;-88
2022/12/15 12:36:27;;;;;;;26.88;12.48;;;;;;;;;;6003911;23;20026;-88
2022/12/15 12:38:55;;;;;;;23.70;12.15;;;;;;;;;;5981572;23;20689;-87
2022/12/15 12:41:38;;;;;;;24.33;12.48;;;;;;;;;;6004447;23;20023;-89
2022/12/15 12:44:12;;;;;;;25.40;12.05;;;;;;;;;;6006254;23;20023;-87
2022/12/15 12:46:43;;;;;;;24.75;12.88;;;;;;;;;;5981511;23;20095;-88
2022/12/15 12:49:28;;;;;;;29.17;12.80;;;;;;;;;;5968112;23;20026;-91
2022/12/15 12:51:57;;;;;;;26.27;13.10;;;;;;;;;;6014922;23;20023;-91
2022/12/15 12:54:31;;;;;;;26.20;12.93;;;;;;;;;;6005729;23;20172;-91
2022/12/15 12:56:57;;;;;;;30.10;13.13;;;;;;;;;;6006242;23;20023;-90
2022/12/15 12:59:28;;;;;;;27.67;13.55;;;;;;;;;;6004914;23;20023;-92
2022/12/15 13:01:55;;;;;;;26.20;11.80;;;;;;;;;;5990622;23;20042;-92
2022/12/15 13:04:32;;;;;;;28.40;13.05;;;;;;;;;;5994729;23;20675;-93
2022/12/15 13:07:00;;;;;;;24.80;11.93;;;;;;;;;;6007796;23;20019;-90
2022/12/15 13:09:40;;;;;;;28.27;11.82;;;;;;;;;;6007146;23;20016;-92
2022/12/15 13:12:45;;;;;;;26.25;12.60;;;;;;;;;;6005538;23;20026;-91
2022/12/15 13:15:38;;;;;;;27.85;12.73;;;;;;;;;;5964686;23;20524;-90
2022/12/15 13:19:00;;;;;;;26.08;12.40;;;;;;;;;;6012227;23;20037;-92
2022/12/15 13:21:41;;;;;;;24.55;10.50;;;;;;;;;;5914970;24;20044;-90
2022/12/15 13:24:45;;;;;;;26.75;12.70;;;;;;;;;;6031855;23;20092;-91
2022/12/15 13:27:14;;;;;;;23.85;11.95;;;;;;;;;;5919235;24;20020;-87
2022/12/15 13:29:55;;;;;;;27.10;12.70;;;;;;;;;;5920403;24;20142;-87
2022/12/15 13:32:39;;;;;;;24.58;11.85;;;;;;;;;;5941955;24;20035;-90
2022/12/15 13:35:25;;;;;;;24.85;12.32;;;;;;;;;;5908012;24;20028;-88
2022/12/15 13:38:01;;;;;;;28.20;12.93;;;;;;;;;;5919287;24;20021;-87
2022/12/15 13:40:33;;;;;;;25.73;12.23;;;;;;;;;;5921570;24;20020;-89
2022/12/15 13:43:25;;;;;;;24.13;11.90;;;;;;;;;;5922320;24;20012;-84
2022/12/15 13:45:53;;;;;;;25.08;11.52;;;;;;;;;;5945250;23;20076;-88
2022/12/15 13:48:31;;;;;;;25.98;11.52;;;;;;;;;;5897497;24;20533;-88
2022/12/15 13:51:11;;;;;;;24.50;12.15;;;;;;;;;;5941376;24;20020;-90
2022/12/15 13:53:42;;;;;;;25.42;12.55;;;;;;;;;;5944242;24;20021;-89
2022/12/15 13:56:30;;;;;;;22.40;11.20;;;;;;;;;;5896397;24;20383;-91
2022/12/15 13:59:06;;;;;;;29.70;12.43;;;;;;;;;;5910614;24;20078;-90
2022/12/15 14:01:32;;;;;;;26.15;12.18;;;;;;;;;;5864892;24;20021;-90
2022/12/15 14:03:58;;;;;;;24.40;10.88;;;;;;;;;;5886863;24;20024;-88
2022/12/15 14:06:33;;;;;;;26.10;12.45;;;;;;;;;;5920201;24;20666;-89
2022/12/15 14:08:58;;;;;;;27.30;12.60;;;;;;;;;;5944125;24;20453;-89
2022/12/15 14:11:28;;;;;;;24.20;11.52;;;;;;;;;;5941871;24;20028;-88
2022/12/15 14:13:58;;;;;;;21.30;11.15;;;;;;;;;;5920361;24;20089;-86
2022/12/15 14:16:32;;;;;;;25.67;11.60;;;;;;;;;;5895432;24;20378;-87
2022/12/15 14:19:15;;;;;;;26.95;11.80;;;;;;;;;;5897977;24;20029;-87
2022/12/15 14:21:48;;;;;;;25.73;12.85;;;;;;;;;;5896227;24;20097;-89
2022/12/15 14:24:25;;;;;;;24.88;11.65;;;;;;;;;;5919560;24;20115;-88
2022/12/15 14:26:51;;;;;;;26.17;12.07;;;;;;;;;;5896390;24;20160;-88
2022/12/15 14:29:17;;;;;;;27.23;12.57;;;;;;;;;;5919556;24;20024;-88
2022/12/15 14:31:50;;;;;;;28.52;12.25;;;;;;;;;;5896570;24;20047;-87
2022/12/15 14:34:20;;;;;;;25.30;12.65;;;;;;;;;;5942945;24;20270;-88
2022/12/15 14:36:49;;;;;;;24.80;11.73;;;;;;;;;;5964403;23;20038;-88
2022/12/15 14:39:20;;;;;;;25.83;13.23;;;;;;;;;;5953566;23;20019;-88
2022/12/15 14:41:47;;;;;;;24.33;12.52;;;;;;;;;;5976835;23;20026;-88
2022/12/15 14:44:24;;;;;;;22.83;11.80;;;;;;;;;;5953634;23;20020;-89
2022/12/15 14:46:49;;;;;;;27.90;13.05;;;;;;;;;;5975500;23;20156;-88
2022/12/15 14:49:24;;;;;;;26.50;13.27;;;;;;;;;;5977313;23;20060;-88
2022/12/15 14:51:52;;;;;;;27.15;12.70;;;;;;;;;;5952403;23;20011;-89
2022/12/15 14:54:29;;;;;;;30.65;13.60;;;;;;;;;;5953729;23;20024;-90
2022/12/15 14:57:24;;;;;;;25.92;13.05;;;;;;;;;;5975927;23;20082;-86
2022/12/15 14:59:51;;;;;;;28.52;14.45;;;;;;;;;;5966766;23;20487;-88
2022/12/15 15:02:24;;;;;;;29.88;14.35;;;;;;;;;;5981405;23;20021;-87
2022/12/15 15:05:02;;;;;;;26.55;13.13;;;;;;;;;;5982034;23;20048;-88
2022/12/15 15:07:29;;;;;;;30.73;14.05;;;;;;;;;;6003373;23;20078;-88
2022/12/15 15:09:55;;;;;;;26.30;13.55;;;;;;;;;;5981364;23;20023;-87
2022/12/15 15:12:23;;;;;;;30.13;14.52;;;;;;;;;;5980914;23;20452;-88
2022/12/15 15:15:02;;;;;;;26.13;13.18;;;;;;;;;;6005297;23;20054;-87
2022/12/15 15:17:35;;;;;;;27.13;13.50;;;;;;;;;;5980715;23;20051;-86
2022/12/15 15:20:04;;;;;;;27.63;13.18;;;;;;;;;;5981269;23;20039;-89
2022/12/15 15:22:35;;;;;;;27.55;13.25;;;;;;;;;;5968976;23;20019;-90
2022/12/15 15:25:18;;;;;;;27.35;12.88;;;;;;;;;;6029543;23;20353;-88
2022/12/15 15:27:43;;;;;;;26.33;12.90;;;;;;;;;;5980946;23;20084;-89
2022/12/15 15:30:21;;;;;;;26.90;12.38;;;;;;;;;;5981217;23;20019;-86
2022/12/15 15:32:57;;;;;;;26.05;12.52;;;;;;;;;;6028213;23;20499;-87
2022/12/15 15:35:29;;;;;;;28.17;13.10;;;;;;;;;;5979430;23;20035;-86
2022/12/15 15:37:58;;;;;;;26.40;12.20;;;;;;;;;;6005153;23;20308;-87
2022/12/15 15:40:26;;;;;;;26.02;13.20;;;;;;;;;;5979892;23;20089;-88
2022/12/15 15:42:52;;;;;;;27.35;13.10;;;;;;;;;;6005134;23;20022;-88
2022/12/15 15:45:17;;;;;;;29.13;13.45;;;;;;;;;;5980297;23;20353;-88
2022/12/15 15:47:46;;;;;;;30.83;13.20;;;;;;;;;;6004967;23;20058;-87
2022/12/15 15:50:15;;;;;;;27.08;14.15;;;;;;;;;;5980441;23;20016;-87
2022/12/15 15:52:42;;;;;;;27.83;13.60;;;;;;;;;;6005462;23;20030;-87
2022/12/15 15:55:14;;;;;;;27.98;13.93;;;;;;;;;;5982001;23;20353;-87
2022/12/15 15:57:40;;;;;;;27.13;12.70;;;;;;;;;;5981295;23;20007;-87
2022/12/15 16:00:25;;;;;;;29.45;13.77;;;;;;;;;;5980911;23;20015;-88
2022/12/15 16:02:51;;;;;;;28.83;14.35;;;;;;;;;;5994034;23;20019;-87
2022/12/15 16:05:17;;;;;;;29.23;13.95;;;;;;;;;;6028289;23;20026;-87
2022/12/15 16:07:43;;;;;;;28.40;15.05;;;;;;;;;;5981347;23;20011;-87
2022/12/15 16:10:17;;;;;;;30.17;14.25;;;;;;;;;;5981107;23;20456;-87
2022/12/15 16:12:46;;;;;;;28.13;14.23;;;;;;;;;;6004793;23;20463;-87
2022/12/15 16:15:14;;;;;;;27.33;13.43;;;;;;;;;;5980307;23;20068;-87
2022/12/15 16:17:40;;;;;;;27.33;14.93;;;;;;;;;;6007278;23;20011;-86
2022/12/15 16:20:06;;;;;;;27.35;13.13;;;;;;;;;;6005803;23;20087;-87
2022/12/15 16:22:34;;;;;;;32.78;14.55;;;;;;;;;;5981650;23;20027;-86
2022/12/15 16:24:59;;;;;;;30.30;14.60;;;;;;;;;;6005215;23;20023;-86
2022/12/15 16:27:25;;;;;;;32.58;14.93;;;;;;;;;;5981803;23;20019;-86
2022/12/15 16:29:50;;;;;;;31.98;14.55;;;;;;;;;;6005708;23;20011;-86
2022/12/15 16:32:15;;;;;;;30.83;14.23;;;;;;;;;;6006245;23;20053;-86
2022/12/15 16:34:41;;;;;;;27.95;13.60;;;;;;;;;;5982148;23;20023;-85
2022/12/15 16:37:23;;;;;;;25.42;12.73;;;;;;;;;;6006390;23;20399;-87
2022/12/15 16:40:10;;;;;;;26.30;13.20;;;;;;;;;;5981916;23;20019;-85
2022/12/15 16:42:35;;;;;;;26.60;13.80;;;;;;;;;;5946332;24;20092;-86
2022/12/15 16:45:13;;;;;;;28.55;13.60;;;;;;;;;;5921798;24;20043;-87
2022/12/15 16:47:41;;;;;;;29.00;14.80;;;;;;;;;;5922202;24;20023;-86
2022/12/15 16:50:08;;;;;;;26.40;12.02;;;;;;;;;;5921950;24;20024;-81
2022/12/15 16:52:39;;;;;;;28.40;15.80;;;;;;;;;;5901069;24;20012;-80
2022/12/15 16:55:05;;;;;;;27.90;13.75;;;;;;;;;;5923752;24;20261;-81
2022/12/15 16:57:30;;;;;;;26.58;13.60;;;;;;;;;;5901031;24;20162;-82
2022/12/15 16:59:56;;;;;;;29.02;14.05;;;;;;;;;;5922870;24;20029;-91
2022/12/15 17:02:27;;;;;;;28.23;13.88;;;;;;;;;;5924969;24;20028;-91
2022/12/15 17:04:54;;;;;;;27.88;13.45;;;;;;;;;;5925004;24;20390;-89
2022/12/15 17:07:19;;;;;;;33.40;15.48;;;;;;;;;;5924253;24;20038;-90
2022/12/15 17:09:45;;;;;;;26.48;14.23;;;;;;;;;;5925661;24;20092;-88
2022/12/15 17:12:17;;;;;;;27.77;14.45;;;;;;;;;;5924848;24;20012;-90